Country
Station

 

Weather  for  Sandakan  -  Malaysia    Malaysia

  
27 °C (81 °F)
    
 
 

Current METAR for Sandakan is :

WBKS 191500Z VRB02KT 9999 FEW015 BKN300 27/25 Q1009

 

This is a report for Sandakan - Malaysia.
 
The report was made 39 minutes ago, at 15:00 UTC .
The wind was blowing at a speed of 1.0 meters per second (2.3 miles per hour) from variable directions.
 
The temperature was 27 °C (81 °F), with a dew-point at 25 °C (77 °F).
The temperature felt like 31 °C (88 °F).
 
The atmospheric pressure was 1009 hPa (29.80 inHg).
The relative humidity was 88.8%.
 
There were a few clouds at a height of 457 meters (1500 feet) and broken clouds at a height of 9144 meters (30000 feet).
 
The overall visibility was greater than 10 kilometers (6.2 miles).
 

 
 
 
 

Country :   A   B   C   D   E   F   G   H   I   J   K   L   M   N   O   P   Q   R   S   T   U   V   W   Y   Z

 

Site Info  |  Disclaimer  |  Credits  |  Privacy
Contact us  |  Add to favorites
© 2013-2018 METARs - All rights reserved